^^

Nearby METAR Reports

METAR (Meteorological Aerodrome Report) are Airport generated local weather condition reports for use, predominantly by pilots, these reports are also used as part of compliment of data sets required for Chatteris Weathers prediction software - WxSim.

EGUN - Mildenhall Raf, United Kingdom
Distance from station: ESE 19mi, 31km
Updated: 23/04/2018 17:56
Clear
Clear
 Wind from WSW
Wind: WSW 14 mph , 22 km/h, Gust: 21 mph , 33 km/h
Temperature: 15°C
Dew Point: 9°C
Humidity: 68%
Barometer: 1013.2 hPa
Clouds: Clear
Visibility: 6 miles , 10 km
2018/04/23 16:56 EGUN 231656Z AUTO 24012G18KT 9999 CLR 15/09 A2992 RMK AO2 SLP135 T01520087 $
EGSC - Cambridge, United Kingdom
Distance from station: SSE 20mi, 32km
Updated: 23/04/2018 17:50
Few Clouds
Few Clouds
 Wind from WSW
Wind: WSW 18 mph , 30 km/h
Temperature: 14°C
Dew Point: 5°C
Humidity: 55%
Barometer: 1014 hPa
Clouds: Few Clouds
Visibility: 6 miles , 10 km
Cloud details: Few Clouds 1372 m
2018/04/23 16:50 EGSC 231650Z 24016KT 200V260 9999 FEW045 14/05 Q1014
 
EGUL - Lakenheath Raf, United Kingdom
Distance from station: E 22mi, 36km
Updated: 23/04/2018 17:56
Clear
Clear
 Wind from WSW
Wind: WSW 16 mph , 26 km/h
Temperature: 15°C
Dew Point: 5°C
Humidity: 51%
Barometer: 1013.2 hPa
Clouds: Clear
Visibility: 6 miles , 10 km
2018/04/23 16:56 EGUL 231656Z AUTO 24014KT 9999 CLR 15/05 A2992 RMK AO2 SLP135 T01450053 $
EGXT - Wittering Raf, United Kingdom
Distance from station: WNW 24mi, 38km
Updated: 23/04/2018 17:50
Mostly cloudy
Mostly cloudy
 Wind from WSW
Wind: WSW 21 mph , 33 km/h
Temperature: 14°C
Dew Point: 7°C
Humidity: 63%
Barometer: 1012 hPa
Clouds: Mostly cloudy
Visibility: 6 miles , 10 km
Cloud details: Few Clouds 3353 m
Mostly cloudy 6096 m
2018/04/23 16:50 EGXT 231650Z AUTO 24018KT 9999 FEW110/// BKN200/// 14/07 Q1012
 
EGYH - Holbeach (aut), United Kingdom
Distance from station: N 27mi, 44km
Updated: 23/04/2018 15:50
NOT Current
Partly cloudy
Partly cloudy
 Wind from W
Wind: W 24 mph , 39 km/h
Temperature: 15°C
Dew Point: 5°C
Humidity: 51%
Barometer: 1014 hPa
Clouds: Partly cloudy
Visibility: 6 miles , 10 km
Cloud details: Partly cloudy 1219 m
2018/04/23 14:50 EGYH 231450Z 26021KT 9999 SCT040 15/05 Q1014 BLU
EGSS - Stansted Airport, United Kingdom
Distance from station: SE 11mi, 18km
Updated: 23/04/2018 17:50
Clear
Clear
 Wind from W
Wind: W 13 mph , 20 km/h
Temperature: 14°C
Dew Point: 6°C
Humidity: 59%
Barometer: 1015 hPa
Clouds: Clear
Visibility: 6 miles , 10 km
2018/04/23 16:50 EGSS 231650Z AUTO 26011KT 9999 NCD 14/06 Q1015
 
EGGW - Luton Airport, United Kingdom
Distance from station: WSW 19mi, 31km
Updated: 23/04/2018 17:50
Clear
Clear
 Wind from WSW
Wind: WSW 17 mph , 28 km/h
Temperature: 14°C
Dew Point: 6°C
Humidity: 59%
Barometer: 1014 hPa
Clouds: Clear
Visibility: 6 miles , 10 km
2018/04/23 16:50 EGGW 231650Z AUTO 24015KT 9999 NCD 14/06 Q1014
EGLL - London/Heathrow, United Kingdom
Distance from station: SSW 41mi, 66km
Updated: 23/04/2018 17:50
Clear
Clear
 Wind from WSW
Wind: WSW 15 mph , 24 km/h
Temperature: 15°C
Dew Point: 7°C
Humidity: 59%
Barometer: 1016 hPa
Clouds: Clear
Visibility: 6 miles , 10 km
2018/04/23 16:50 EGLL 231650Z AUTO 24013KT 9999 NCD 15/07 Q1016 NOSIG
 
EGKK - London/Gatwick A, United Kingdom
Distance from station: S 60mi, 97km
Updated: 23/04/2018 17:50
Few Clouds
Few Clouds
 Wind from WSW
Wind: WSW 13 mph , 20 km/h
Temperature: 14°C
Dew Point: 8°C
Humidity: 67%
Barometer: 1016 hPa
Clouds: Few Clouds
Visibility: 6 miles , 10 km
Cloud details: Few Clouds 914 m
2018/04/23 16:50 EGKK 231650Z 24011KT 9999 FEW030 14/08 Q1016
EGUY - Wyton Raf, United Kingdom
Distance from station: SW 11mi, 18km
Updated: 04/10/2015 09:50
NOT Current
Haze, Clear
Haze, Clear
 Wind from SSE
Wind: SSE 2 mph , 4 km/h
Temperature: 11°C
Dew Point: 7°C
Humidity: 77%
Barometer: 1014 hPa
Summary: Haze
Clouds: Clear
Visibility: 4 miles , 6 km
2015/10/04 08:50 EGUY 040850Z 15002KT 6000 HZ SKC 11/07 Q1014 WHT

Met Office METAR data link, decoding METAR data code.